Aviation Digital Data Service (ADDS)

Output produced by METARs form (1838 UTC 18 June 2019)
found at http://www.aviationweather.gov/metar/data/
 
KACY 181754Z 21008KT 10SM CLR 29/21 A2988 RMK AO2 SLP116 T02890211 10289 20239 58015
KACY 181730Z 1818/1918 17006KT P6SM SCT025 BKN100 
     FM182000 22008KT P6SM SCT025 BKN100 
     TEMPO 1823/1901 2SM TSRA OVC015CB 
     FM190100 25005KT 5SM SHRA BR VCTS BKN020CB 
     FM190400 25005KT 5SM -SHRA VCTS BKN008CB 
     FM190900 VRB03KT 5SM BR OVC008 
     FM191500 18007KT P6SM BKN015
       
KBLM 181756Z AUTO 08008KT 9SM OVC006 22/21 A2990 RMK AO2 LTG DSNT NW SLP125 60000 T02220206 10250 20211 56017
KCDW 181753Z 20007KT 10SM BKN009 BKN031 OVC085 24/22 A2989 RMK AO2 RAE48 SLP125 P0012 60032 T02390222 10239 20222 58014
KLDJ 181835Z AUTO 00000KT 1 3/4SM RA SCT003 BKN032 OVC046 22/20 A2988 RMK AO2 LTG DSNT SW P0023 T02160202
KMIV 181754Z AUTO 22005KT 10SM SCT110 28/23 A2989 RMK AO2 SLP119 T02780233 10278 20228 58009
KMIV 181730Z 1818/1918 23006KT P6SM BKN100 
     TEMPO 1823/1901 2SM TSRA OVC015CB 
     FM190100 25005KT 5SM SHRA BR VCTS OVC020CB 
     FM190400 25005KT 5SM -SHRA BR VCTS OVC008CB 
     FM190900 VRB03KT 2SM BR OVC008 
     FM191400 17005KT P6SM BKN015
       
KMMU 181745Z 24007KT 7SM -RA SCT010 BKN065 OVC090 22/21 A2990 RMK LGT DSNT SW
KVAY 181754Z AUTO 24007KT 10SM BKN023 27/22 A2987 RMK AO2 LTG DSNT N SLP114 60000 T02720222 10278 20217 58013 $
KEWR 181826Z 14005KT 3SM -RA BR SCT006 BKN035 OVC075 22/21 A2988 RMK AO2 SFC VIS 4 LTG DSNT S AND SW P0012 T02170206
KEWR 181724Z 1818/1924 14007KT 4SM -SHRA VCTS BKN012CB OVC030 
     TEMPO 1818/1822 2SM +SHRA BKN010 
     FM182200 18006KT 6SM -SHRA BKN025 
     FM190000 VRB03KT 2SM BR VCSH BKN015 OVC025 
     FM190100 05005KT 2SM BR VCSH OVC004 
     FM191200 VRB05KT 1SM BR VCSH OVC004 
     FM191500 18005KT 6SM HZ VCSH BKN015 OVC025
       
KFWN 181820Z AUTO 04005KT 10SM FEW008 OVC034 21/20 A2991 RMK AO2 RAE00 P0000 T02110200 $
KTEB 181811Z 21005KT 4SM BR OVC012 23/22 A2987 RMK AO2 RAE10 P0001 T02330217 $
KTEB 181724Z 1818/1924 19005KT 5SM -SHRA VCTS BKN010CB OVC030 
     TEMPO 1818/1822 3SM SHRA BKN008 
     FM182200 18006KT 6SM -SHRA BKN025 
     FM190000 VRB03KT 5SM BR VCSH BKN015 OVC025 
     FM190100 05005KT 2SM BR VCSH OVC004 
     FM191200 14004KT 1SM BR VCSH OVC004 
     FM191500 18005KT 6SM HZ VCSH BKN015 OVC025
       
KMJX 181756Z AUTO VRB05KT 10SM BKN020 OVC026 27/23 A2988 RMK AO2 SLPNO 60000 T02670233 58016
KTTN 181835Z 02008KT 10SM SCT021 BKN026 OVC048 24/20 A2986 RMK AO2 LTG DSNT NE AND E T02440200
KTTN 181730Z 1818/1918 VRB03KT 6SM SHRA BR VCTS BKN015CB BKN025 
     FM181900 30005KT P6SM BKN025 BKN050 
     TEMPO 1820/1823 2SM TSRA OVC009CB 
     FM182300 02006KT 6SM BR BKN015 
     FM190300 VRB03KT 3SM SHRA VCTS BKN008CB 
     FM190700 VRB02KT 2SM SHRA BR BKN003 
     FM191500 18003KT 6SM SHRA BR OVC015
       
KWWD 181756Z AUTO 24010KT 10SM FEW110 28/23 A2990 RMK AO2 SLP127 T02830228 10283 20228 58010
KWRI 181756Z 23009KT 10SM BKN030 28/22 RMK AO2A LTG DSNT NW SLPNO 60000 T02750220 10281 20207 RVRNO VISNO RWY06 CHINO RWY06 $
TAF KWRI 181800Z 1818/1924 22008KT 9999 SCT020 OVC050 QNH2987INS 
     BECMG 1820/1821 23009KT 6000 SHRA SCT020 BKN040 QNH2983INS 
     TEMPO 1821/1824 24012G25KT 4800 TSRA OVC025CB 
     BECMG 1903/1904 23006KT 8000 -SHRA BR OVC010 QNH2982INS 
     BECMG 1907/1908 21006KT 4800 BR OVC007 QNH2979INS 
     BECMG 1908/1909 20004KT 3200 BR OVC004 QNH2977INS 
     BECMG 1912/1913 18006KT 9999 NSW BKN015 OVC030 QNH2975INS 
     BECMG 1920/1921 15006KT 9999 OVC020 QNH2973INS TX29/1819Z TN19/1909Z